createdAt,value
2023-04-15T00:00:01.882Z,10.10
2023-04-15T00:02:29.571Z,10.10
2023-04-15T00:04:56.605Z,10.10
2023-04-15T00:07:23.660Z,10.00
2023-04-15T00:09:55.107Z,10.10
2023-04-15T00:12:22.513Z,10.00
2023-04-15T00:14:54.376Z,10.00
2023-04-15T00:17:21.447Z,10.00
2023-04-15T00:19:50.936Z,10.00
2023-04-15T00:22:18.331Z,10.00
2023-04-15T00:24:45.278Z,9.90
2023-04-15T00:27:12.263Z,9.90
2023-04-15T00:29:39.323Z,9.90
2023-04-15T00:32:06.779Z,9.90
2023-04-15T00:34:33.973Z,9.90
2023-04-15T00:37:01.035Z,9.90
2023-04-15T00:39:28.228Z,9.90
2023-04-15T00:41:56.041Z,9.90
2023-04-15T00:44:23.209Z,9.80
2023-04-15T00:46:52.150Z,9.80
2023-04-15T00:49:19.396Z,9.80
2023-04-15T00:51:46.443Z,9.80
2023-04-15T00:54:13.683Z,9.70
2023-04-15T00:56:41.023Z,9.70
2023-04-15T00:59:09.016Z,9.70
2023-04-15T01:01:38.519Z,9.70
2023-04-15T01:04:06.273Z,9.60
2023-04-15T01:06:33.610Z,9.60
2023-04-15T01:09:01.208Z,9.60
2023-04-15T01:11:28.909Z,9.60
2023-04-15T01:13:57.499Z,9.50
2023-04-15T01:16:24.991Z,9.50
2023-04-15T01:18:52.311Z,9.50
2023-04-15T01:21:20.011Z,9.50
2023-04-15T01:23:51.667Z,9.40
2023-04-15T01:26:18.756Z,9.40
2023-04-15T01:28:45.872Z,9.40
2023-04-15T01:31:14.329Z,9.40
2023-04-15T01:33:43.384Z,9.30
2023-04-15T01:36:10.947Z,9.30
2023-04-15T01:38:39.200Z,9.30
2023-04-15T01:41:08.246Z,9.30
2023-04-15T01:43:39.166Z,9.30
2023-04-15T01:46:07.285Z,9.20
2023-04-15T01:48:34.577Z,9.20
2023-04-15T01:51:02.210Z,9.20
2023-04-15T01:53:29.541Z,9.20
2023-04-15T01:55:56.710Z,9.20
2023-04-15T01:58:23.560Z,9.20
2023-04-15T02:00:50.767Z,9.10
2023-04-15T02:03:18.281Z,9.10
2023-04-15T02:05:45.414Z,9.10
2023-04-15T02:08:12.568Z,9.10
2023-04-15T02:10:39.709Z,9.00
2023-04-15T02:13:06.654Z,9.10
2023-04-15T02:15:33.694Z,9.00
2023-04-15T02:18:02.090Z,9.00
2023-04-15T02:20:30.605Z,9.00
2023-04-15T02:22:57.566Z,8.90
2023-04-15T02:25:24.591Z,8.90
2023-04-15T02:27:51.685Z,8.90
2023-04-15T02:30:18.790Z,8.90
2023-04-15T02:32:46.087Z,8.90
2023-04-15T02:35:13.366Z,8.80
2023-04-15T02:37:45.981Z,8.80
2023-04-15T02:40:16.435Z,8.80
2023-04-15T02:42:46.857Z,8.80
2023-04-15T02:45:23.902Z,8.80
2023-04-15T02:47:52.653Z,8.70
2023-04-15T02:50:20.110Z,8.70
2023-04-15T02:52:47.226Z,8.70
2023-04-15T02:55:14.712Z,8.60
2023-04-15T02:57:41.937Z,8.70
2023-04-15T03:00:11.775Z,8.60
2023-04-15T03:02:42.457Z,8.60
2023-04-15T03:05:13.964Z,8.60
2023-04-15T03:07:41.196Z,8.60
2023-04-15T03:10:09.458Z,8.60
2023-04-15T03:12:36.453Z,8.60
2023-04-15T03:15:03.820Z,8.60
2023-04-15T03:17:31.092Z,8.60
2023-04-15T03:19:58.037Z,8.60
2023-04-15T03:22:26.557Z,8.60
2023-04-15T03:24:53.492Z,8.50
2023-04-15T03:27:20.425Z,8.50
2023-04-15T03:29:47.468Z,8.50
2023-04-15T03:32:15.317Z,8.50
2023-04-15T03:34:42.551Z,8.50
2023-04-15T03:37:09.642Z,8.50
2023-04-15T03:39:39.618Z,8.50
2023-04-15T03:42:06.769Z,8.50
2023-04-15T03:44:33.886Z,8.50
2023-04-15T03:47:01.244Z,8.50
2023-04-15T03:49:28.128Z,8.50
2023-04-15T03:51:55.212Z,8.50
2023-04-15T03:54:22.237Z,8.40
2023-04-15T03:56:49.192Z,8.40
2023-04-15T03:59:16.136Z,8.40
2023-04-15T04:01:44.033Z,8.40
2023-04-15T04:04:11.123Z,8.40
2023-04-15T04:06:38.095Z,8.40
2023-04-15T04:09:05.117Z,8.40
2023-04-15T04:11:33.123Z,8.40
2023-04-15T04:13:59.986Z,8.40
2023-04-15T04:16:27.035Z,8.40
2023-04-15T04:18:54.159Z,8.40
2023-04-15T04:21:21.705Z,8.40
2023-04-15T04:23:48.634Z,8.40
2023-04-15T04:26:15.531Z,8.30
2023-04-15T04:28:42.372Z,8.30
2023-04-15T04:31:09.407Z,8.30
2023-04-15T04:33:36.389Z,8.30
2023-04-15T04:36:03.552Z,8.30
2023-04-15T04:38:30.516Z,8.30
2023-04-15T04:40:57.430Z,8.30
2023-04-15T04:43:24.611Z,8.30
2023-04-15T04:45:51.516Z,8.30
2023-04-15T04:48:18.656Z,8.30
2023-04-15T04:50:47.042Z,8.30
2023-04-15T04:53:13.903Z,8.20
2023-04-15T04:55:40.790Z,8.20
2023-04-15T04:58:07.740Z,8.20
2023-04-15T05:00:34.838Z,8.20
2023-04-15T05:03:01.923Z,8.20
2023-04-15T05:05:28.927Z,8.20
2023-04-15T05:07:55.806Z,8.20
2023-04-15T05:10:22.718Z,8.20
2023-04-15T05:12:50.531Z,8.20
2023-04-15T05:15:17.479Z,8.20
2023-04-15T05:17:44.774Z,8.20
2023-04-15T05:20:12.572Z,8.20
2023-04-15T05:22:39.450Z,8.20
2023-04-15T05:25:06.702Z,8.20
2023-04-15T05:27:33.539Z,8.20
2023-04-15T05:30:00.622Z,8.20
2023-04-15T05:32:27.532Z,8.20
2023-04-15T05:34:54.399Z,8.20
2023-04-15T05:37:22.428Z,8.20
2023-04-15T05:39:49.895Z,8.20
2023-04-15T05:42:16.888Z,8.20
2023-04-15T05:44:43.950Z,8.20
2023-04-15T05:47:11.076Z,8.20
2023-04-15T05:49:38.063Z,8.20
2023-04-15T05:52:05.192Z,8.20
2023-04-15T05:54:32.286Z,8.20
2023-04-15T05:56:59.154Z,8.20
2023-04-15T05:59:26.158Z,8.20
2023-04-15T06:01:53.819Z,8.20
2023-04-15T06:04:20.913Z,8.20
2023-04-15T06:06:48.214Z,8.20
2023-04-15T06:09:15.282Z,8.20
2023-04-15T06:11:42.160Z,8.20
2023-04-15T06:14:09.717Z,8.20
2023-04-15T06:16:36.829Z,8.20
2023-04-15T06:19:04.053Z,8.30
2023-04-15T06:21:31.708Z,8.30
2023-04-15T06:24:01.525Z,8.30
2023-04-15T06:26:28.822Z,8.30
2023-04-15T06:28:55.818Z,8.30
2023-04-15T06:31:22.943Z,8.30
2023-04-15T06:33:50.048Z,8.30
2023-04-15T06:36:17.196Z,8.40
2023-04-15T06:38:44.082Z,8.40
2023-04-15T06:41:13.847Z,8.40
2023-04-15T06:43:40.853Z,8.50
2023-04-15T06:46:07.892Z,8.50
2023-04-15T06:48:34.846Z,8.60
2023-04-15T06:51:02.334Z,8.60
2023-04-15T06:53:29.443Z,8.70
2023-04-15T06:55:56.561Z,8.80
2023-04-15T06:58:23.511Z,8.80
2023-04-15T07:00:51.247Z,8.90
2023-04-15T07:03:18.461Z,8.90
2023-04-15T07:05:45.857Z,9.00
2023-04-15T07:08:12.904Z,9.10
2023-04-15T07:10:39.980Z,9.20
2023-04-15T07:13:08.907Z,9.20
2023-04-15T07:15:35.961Z,9.30
2023-04-15T07:18:03.056Z,9.40
2023-04-15T07:20:30.107Z,9.40
2023-04-15T07:22:57.670Z,9.50
2023-04-15T07:25:24.722Z,9.60
2023-04-15T07:27:52.881Z,9.60
2023-04-15T07:30:20.010Z,9.70
2023-04-15T07:32:47.313Z,9.80
2023-04-15T07:35:14.855Z,9.90
2023-04-15T07:37:43.381Z,10.00
2023-04-15T07:40:10.947Z,10.00
2023-04-15T07:42:40.685Z,10.20
2023-04-15T07:45:11.524Z,10.30
2023-04-15T07:47:49.222Z,10.30
2023-04-15T07:50:17.559Z,10.50
2023-04-15T07:52:47.256Z,10.50
2023-04-15T07:55:14.429Z,10.70
2023-04-15T07:57:44.259Z,10.70
2023-04-15T08:00:11.778Z,10.80
2023-04-15T08:02:40.481Z,11.00
2023-04-15T08:05:08.098Z,11.00
2023-04-15T08:07:36.879Z,11.10
2023-04-15T08:10:04.131Z,11.20
2023-04-15T08:12:31.811Z,11.30
2023-04-15T08:14:58.834Z,11.40
2023-04-15T08:17:26.462Z,11.40
2023-04-15T08:19:53.979Z,11.50
2023-04-15T08:22:21.985Z,11.60
2023-04-15T08:24:50.207Z,11.60
2023-04-15T08:27:17.567Z,11.70
2023-04-15T08:29:45.760Z,11.80
2023-04-15T08:32:12.886Z,11.90
2023-04-15T08:34:39.986Z,11.90
2023-04-15T08:37:07.122Z,12.00
2023-04-15T08:39:34.058Z,12.10
2023-04-15T08:42:02.753Z,12.10
2023-04-15T08:44:33.655Z,12.20
2023-04-15T08:47:06.011Z,12.20
2023-04-15T08:49:41.229Z,12.30
2023-04-15T08:52:09.511Z,12.40
2023-04-15T08:54:36.794Z,12.40
2023-04-15T08:57:04.518Z,12.50
2023-04-15T08:59:32.092Z,12.50
2023-04-15T09:01:59.548Z,12.50
2023-04-15T09:04:26.489Z,12.60
2023-04-15T09:06:53.410Z,12.60
2023-04-15T09:09:20.465Z,12.70
2023-04-15T09:11:47.471Z,12.70
2023-04-15T09:14:14.318Z,12.70
2023-04-15T09:17:01.418Z,12.70
2023-04-15T09:19:28.981Z,12.80
2023-04-15T09:21:59.134Z,12.80
2023-04-15T09:24:33.653Z,12.80
2023-04-15T09:27:01.291Z,12.80
2023-04-15T09:29:28.352Z,12.80
2023-04-15T09:31:55.441Z,12.90
2023-04-15T09:34:35.019Z,12.90
2023-04-15T09:37:02.290Z,12.90
2023-04-15T09:39:49.968Z,13.00
2023-04-15T09:42:24.050Z,13.00
2023-04-15T09:44:52.741Z,13.10
2023-04-15T09:47:45.897Z,13.10
2023-04-15T09:50:12.779Z,13.20
2023-04-15T09:52:44.020Z,13.20
2023-04-15T09:55:12.268Z,13.30
2023-04-15T09:57:41.524Z,13.40
2023-04-15T10:00:11.236Z,13.40
2023-04-15T10:02:42.994Z,13.50
2023-04-15T10:05:13.955Z,13.50
2023-04-15T10:07:42.939Z,13.60
2023-04-15T10:10:11.485Z,13.60
2023-04-15T10:12:41.619Z,13.70
2023-04-15T10:15:15.679Z,13.70
2023-04-15T10:17:44.877Z,13.80
2023-04-15T10:20:14.653Z,13.80
2023-04-15T10:22:43.424Z,13.90
2023-04-15T10:25:12.204Z,13.90
2023-04-15T10:27:42.231Z,14.00
2023-04-15T10:30:09.765Z,14.00
2023-04-15T10:32:40.158Z,14.10
2023-04-15T10:35:10.946Z,14.20
2023-04-15T10:37:39.112Z,14.30
2023-04-15T10:40:28.387Z,14.20
2023-04-15T10:43:00.105Z,14.30
2023-04-15T10:45:37.569Z,14.30
2023-04-15T10:48:07.469Z,14.30
2023-04-15T10:50:34.973Z,14.40
2023-04-15T10:53:04.897Z,14.40
2023-04-15T10:55:35.006Z,14.50
2023-04-15T10:58:02.774Z,14.50
2023-04-15T11:00:32.802Z,14.60
2023-04-15T11:03:08.132Z,14.70
2023-04-15T11:05:51.611Z,14.70
2023-04-15T11:08:18.878Z,14.80
2023-04-15T11:10:45.717Z,14.80
2023-04-15T11:13:12.477Z,14.80
2023-04-15T11:15:43.054Z,14.80
2023-04-15T11:18:14.588Z,14.90
2023-04-15T11:20:46.511Z,14.90
2023-04-15T11:23:18.081Z,14.90
2023-04-15T11:25:46.055Z,15.00
2023-04-15T11:28:13.912Z,15.00
2023-04-15T11:30:42.243Z,15.10
2023-04-15T11:33:12.179Z,15.10
2023-04-15T11:35:42.538Z,15.10
2023-04-15T11:38:10.711Z,15.10
2023-04-15T11:40:38.542Z,15.10
2023-04-15T11:43:13.575Z,15.10
2023-04-15T11:45:57.903Z,15.10
2023-04-15T11:48:27.413Z,15.10
2023-04-15T11:50:56.454Z,15.10
2023-04-15T11:53:24.185Z,15.20
2023-04-15T11:55:53.271Z,15.20
2023-04-15T11:58:23.682Z,15.20
2023-04-15T12:00:50.429Z,15.20
2023-04-15T12:03:30.421Z,15.20
2023-04-15T12:06:04.430Z,15.10
2023-04-15T12:09:09.898Z,15.20
2023-04-15T12:11:40.996Z,15.10
2023-04-15T12:14:26.720Z,15.10
2023-04-15T12:16:56.639Z,15.10
2023-04-15T12:19:30.534Z,15.10
2023-04-15T12:22:17.692Z,15.10
2023-04-15T12:24:47.984Z,15.20
2023-04-15T12:27:15.994Z,15.10
2023-04-15T12:29:44.052Z,15.00
2023-04-15T12:32:16.301Z,15.00
2023-04-15T12:34:51.859Z,15.00
2023-04-15T12:37:19.616Z,15.00
2023-04-15T12:39:48.976Z,15.00
2023-04-15T12:42:16.399Z,15.10
2023-04-15T12:44:43.379Z,15.10
2023-04-15T12:47:11.458Z,15.20
2023-04-15T12:49:39.444Z,15.30
2023-04-15T12:52:06.846Z,15.30
2023-04-15T12:54:34.668Z,15.40
2023-04-15T12:57:05.952Z,15.30
2023-04-15T12:59:33.713Z,15.30
2023-04-15T13:02:01.212Z,15.20
2023-04-15T13:04:30.776Z,15.10
2023-04-15T13:06:58.215Z,15.10
2023-04-15T13:09:25.214Z,15.00
2023-04-15T13:11:52.941Z,15.10
2023-04-15T13:14:19.901Z,15.10
2023-04-15T13:16:47.291Z,15.20
2023-04-15T13:19:14.364Z,15.20
2023-04-15T13:21:41.490Z,15.20
2023-04-15T13:24:09.480Z,15.20
2023-04-15T13:26:36.437Z,15.10
2023-04-15T13:29:03.313Z,15.10
2023-04-15T13:31:30.117Z,15.10
2023-04-15T13:33:57.677Z,15.00
2023-04-15T13:36:24.642Z,14.90
2023-04-15T13:38:51.967Z,14.90
2023-04-15T13:41:18.937Z,14.90
2023-04-15T13:43:46.321Z,14.90
2023-04-15T13:46:13.266Z,14.90
2023-04-15T13:48:40.272Z,14.90
2023-04-15T13:51:07.096Z,14.90
2023-04-15T13:53:38.771Z,14.90
2023-04-15T13:56:10.342Z,14.80
2023-04-15T13:58:37.994Z,14.80
2023-04-15T14:01:07.076Z,14.70
2023-04-15T14:03:38.369Z,14.70
2023-04-15T14:06:06.203Z,14.70
2023-04-15T14:08:33.666Z,14.70
2023-04-15T14:11:00.649Z,14.70
2023-04-15T14:13:27.624Z,14.60
2023-04-15T14:15:54.448Z,14.60
2023-04-15T14:18:21.346Z,14.50
2023-04-15T14:20:48.276Z,14.40
2023-04-15T14:23:15.134Z,14.30
2023-04-15T14:25:41.972Z,14.20
2023-04-15T14:28:08.896Z,14.10
2023-04-15T14:30:36.033Z,14.10
2023-04-15T14:33:03.325Z,14.00
2023-04-15T14:35:30.692Z,14.00
2023-04-15T14:37:57.802Z,14.00
2023-04-15T14:40:24.616Z,13.90
2023-04-15T14:42:51.458Z,14.00
2023-04-15T14:45:18.496Z,13.90
2023-04-15T14:47:45.439Z,13.90
2023-04-15T14:50:12.664Z,13.80
2023-04-15T14:52:39.835Z,13.80
2023-04-15T14:55:08.036Z,13.80
2023-04-15T14:57:34.946Z,13.80
2023-04-15T15:00:02.292Z,13.70
2023-04-15T15:02:38.541Z,13.70
2023-04-15T15:05:06.984Z,13.60
2023-04-15T15:07:34.016Z,13.50
2023-04-15T15:10:00.959Z,13.40
2023-04-15T15:12:28.039Z,13.40
2023-04-15T15:14:56.199Z,13.30
2023-04-15T15:17:23.293Z,13.20
2023-04-15T15:19:50.219Z,13.20
2023-04-15T15:22:18.880Z,13.10
2023-04-15T15:24:47.093Z,13.00
2023-04-15T15:27:14.271Z,13.00
2023-04-15T15:29:41.307Z,13.00
2023-04-15T15:32:08.231Z,13.00
2023-04-15T15:34:35.186Z,12.90
2023-04-15T15:37:02.208Z,12.90
2023-04-15T15:39:29.275Z,12.90
2023-04-15T15:41:56.598Z,12.80
2023-04-15T15:44:23.887Z,12.70
2023-04-15T15:46:51.319Z,12.70
2023-04-15T15:49:18.472Z,12.60
2023-04-15T15:51:46.020Z,12.50
2023-04-15T15:54:13.139Z,12.50
2023-04-15T15:56:40.140Z,12.40
2023-04-15T15:59:07.170Z,12.40
2023-04-15T16:01:34.438Z,12.30
2023-04-15T16:04:02.779Z,12.30
2023-04-15T16:06:29.839Z,12.20
2023-04-15T16:08:56.683Z,12.20
2023-04-15T16:11:23.886Z,12.10
2023-04-15T16:13:51.546Z,12.10
2023-04-15T16:16:18.501Z,12.10
2023-04-15T16:18:45.763Z,12.00
2023-04-15T16:21:12.691Z,12.00
2023-04-15T16:23:40.667Z,11.90
2023-04-15T16:26:07.607Z,11.90
2023-04-15T16:28:34.512Z,11.90
2023-04-15T16:31:01.420Z,11.80
2023-04-15T16:33:28.445Z,11.80
2023-04-15T16:35:55.467Z,11.80
2023-04-15T16:38:22.433Z,11.80
2023-04-15T16:40:49.578Z,11.80
2023-04-15T16:43:16.559Z,11.80
2023-04-15T16:45:45.270Z,11.80
2023-04-15T16:48:12.203Z,11.80
2023-04-15T16:50:39.080Z,11.70
2023-04-15T16:53:06.165Z,11.70
2023-04-15T16:55:33.015Z,11.70
2023-04-15T16:58:03.223Z,11.70
2023-04-15T17:00:31.876Z,11.70
2023-04-15T17:03:00.717Z,11.60
2023-04-15T17:05:27.991Z,11.60
2023-04-15T17:07:55.507Z,11.60
2023-04-15T17:10:22.824Z,11.60
2023-04-15T17:12:52.206Z,11.50
2023-04-15T17:15:20.378Z,11.50
2023-04-15T17:17:47.287Z,11.50
2023-04-15T17:20:15.073Z,11.50
2023-04-15T17:22:42.098Z,11.50
2023-04-15T17:25:09.287Z,11.50
2023-04-15T17:27:36.519Z,11.50
2023-04-15T17:30:03.512Z,11.50
2023-04-15T17:32:34.563Z,11.40
2023-04-15T17:35:06.035Z,11.40
2023-04-15T17:37:34.221Z,11.30
2023-04-15T17:40:01.364Z,11.30
2023-04-15T17:42:28.735Z,11.30
2023-04-15T17:44:55.659Z,11.20
2023-04-15T17:47:22.704Z,11.20
2023-04-15T17:49:49.550Z,11.20
2023-04-15T17:52:16.505Z,11.20
2023-04-15T17:54:43.411Z,11.10
2023-04-15T17:57:10.340Z,11.10
2023-04-15T17:59:37.188Z,11.10
2023-04-15T18:02:04.420Z,11.00
2023-04-15T18:04:31.725Z,11.00
2023-04-15T18:06:58.718Z,10.90
2023-04-15T18:09:25.827Z,10.90
2023-04-15T18:11:53.012Z,10.90
2023-04-15T18:14:31.117Z,10.90
2023-04-15T18:17:03.612Z,10.90
2023-04-15T18:19:31.865Z,10.80
2023-04-15T18:22:00.421Z,10.80
2023-04-15T18:24:28.071Z,10.80
2023-04-15T18:26:55.042Z,10.80
2023-04-15T18:29:22.578Z,10.80
2023-04-15T18:31:49.681Z,10.80
2023-04-15T18:34:16.652Z,10.80
2023-04-15T18:36:43.591Z,10.80
2023-04-15T18:39:10.665Z,10.80
2023-04-15T18:41:37.582Z,10.70
2023-04-15T18:44:04.576Z,10.80
2023-04-15T18:46:31.474Z,10.70
2023-04-15T18:48:58.376Z,10.70
2023-04-15T18:51:25.921Z,10.70
2023-04-15T18:53:52.936Z,10.70
2023-04-15T18:56:19.903Z,10.70
2023-04-15T18:59:08.551Z,10.70
2023-04-15T19:01:37.315Z,10.60
2023-04-15T19:04:04.439Z,10.60
2023-04-15T19:06:32.128Z,10.60
2023-04-15T19:08:59.237Z,10.60
2023-04-15T19:11:26.399Z,10.50
2023-04-15T19:13:53.552Z,10.50
2023-04-15T19:16:21.131Z,10.50
2023-04-15T19:18:47.956Z,10.50
2023-04-15T19:21:15.666Z,10.50
2023-04-15T19:23:43.157Z,10.40
2023-04-15T19:26:10.563Z,10.40
2023-04-15T19:28:37.600Z,10.40
2023-04-15T19:31:04.746Z,10.40
2023-04-15T19:33:31.948Z,10.40
2023-04-15T19:36:02.118Z,10.40
2023-04-15T19:38:29.085Z,10.40
2023-04-15T19:40:56.080Z,10.40
2023-04-15T19:43:23.058Z,10.40
2023-04-15T19:45:52.973Z,10.40
2023-04-15T19:48:20.478Z,10.40
2023-04-15T19:50:47.525Z,10.30
2023-04-15T19:53:14.624Z,10.30
2023-04-15T19:55:41.722Z,10.30
2023-04-15T19:58:08.580Z,10.30
2023-04-15T20:00:36.276Z,10.30
2023-04-15T20:03:03.531Z,10.30
2023-04-15T20:05:30.673Z,10.30
2023-04-15T20:07:59.708Z,10.30
2023-04-15T20:10:27.287Z,10.30
2023-04-15T20:12:54.219Z,10.30
2023-04-15T20:15:22.690Z,10.30
2023-04-15T20:17:50.418Z,10.30
2023-04-15T20:20:17.338Z,10.20
2023-04-15T20:22:44.386Z,10.30
2023-04-15T20:25:11.383Z,10.30
2023-04-15T20:27:38.277Z,10.20
2023-04-15T20:30:05.786Z,10.20
2023-04-15T20:32:35.895Z,10.20
2023-04-15T20:35:04.960Z,10.20
2023-04-15T20:37:33.673Z,10.20
2023-04-15T20:40:01.628Z,10.20
2023-04-15T20:42:32.389Z,10.20
2023-04-15T20:44:59.179Z,10.20
2023-04-15T20:47:26.418Z,10.20
2023-04-15T20:49:54.075Z,10.20
2023-04-15T20:52:21.293Z,10.20
2023-04-15T20:54:48.138Z,10.10
2023-04-15T20:57:15.085Z,10.10
2023-04-15T20:59:41.980Z,10.20
2023-04-15T21:02:09.252Z,10.20
2023-04-15T21:04:38.039Z,10.20
2023-04-15T21:07:04.995Z,10.20
2023-04-15T21:09:32.163Z,10.20
2023-04-15T21:12:01.721Z,10.10
2023-04-15T21:14:29.864Z,10.10
2023-04-15T21:16:59.703Z,10.10
2023-04-15T21:19:26.671Z,10.10
2023-04-15T21:21:53.537Z,10.10
2023-04-15T21:24:20.351Z,10.10
2023-04-15T21:26:47.230Z,10.10
2023-04-15T21:29:14.476Z,10.10
2023-04-15T21:31:41.672Z,10.10
2023-04-15T21:34:09.072Z,10.10
2023-04-15T21:36:36.903Z,10.10
2023-04-15T21:39:04.654Z,10.10
2023-04-15T21:41:32.724Z,10.10
2023-04-15T21:43:59.675Z,10.10
2023-04-15T21:46:33.340Z,10.10
2023-04-15T21:49:02.451Z,10.10
2023-04-15T21:51:29.459Z,10.10
2023-04-15T21:53:56.349Z,10.10
2023-04-15T21:56:24.392Z,10.10
2023-04-15T21:58:56.926Z,10.10
2023-04-15T22:01:26.752Z,10.10
2023-04-15T22:03:53.926Z,10.10
2023-04-15T22:06:21.518Z,10.10
2023-04-15T22:08:56.921Z,10.10
2023-04-15T22:11:28.514Z,10.10
2023-04-15T22:13:57.290Z,10.10
2023-04-15T22:16:27.752Z,10.10
2023-04-15T22:18:55.322Z,10.10
2023-04-15T22:21:22.701Z,10.10
2023-04-15T22:23:49.817Z,10.10
2023-04-15T22:26:16.856Z,10.10
2023-04-15T22:28:43.830Z,10.10
2023-04-15T22:31:10.865Z,10.10
2023-04-15T22:33:38.958Z,10.10
2023-04-15T22:36:06.415Z,10.10
2023-04-15T22:38:33.419Z,10.10
2023-04-15T22:41:00.458Z,10.10
2023-04-15T22:43:27.625Z,10.10
2023-04-15T22:45:55.248Z,10.10
2023-04-15T22:48:23.024Z,10.20
2023-04-15T22:50:50.306Z,10.20
2023-04-15T22:53:17.896Z,10.20
2023-04-15T22:55:47.810Z,10.20
2023-04-15T22:58:15.973Z,10.20
2023-04-15T23:00:42.934Z,10.20
2023-04-15T23:03:10.236Z,10.20
2023-04-15T23:05:37.488Z,10.20
2023-04-15T23:08:04.617Z,10.20
2023-04-15T23:10:31.781Z,10.20
2023-04-15T23:12:58.976Z,10.20
2023-04-15T23:15:26.056Z,10.20
2023-04-15T23:17:53.151Z,10.20
2023-04-15T23:20:20.307Z,10.20
2023-04-15T23:22:47.242Z,10.20
2023-04-15T23:25:14.390Z,10.20
2023-04-15T23:27:41.351Z,10.20
2023-04-15T23:30:08.838Z,10.20
2023-04-15T23:32:35.908Z,10.20
2023-04-15T23:35:02.863Z,10.20
2023-04-15T23:37:31.609Z,10.20
2023-04-15T23:39:58.562Z,10.20
2023-04-15T23:42:26.058Z,10.20
2023-04-15T23:44:53.052Z,10.20
2023-04-15T23:47:19.975Z,10.20
2023-04-15T23:49:46.908Z,10.20
2023-04-15T23:52:13.894Z,10.20
2023-04-15T23:54:41.121Z,10.30
2023-04-15T23:57:08.160Z,10.20
2023-04-15T23:59:35.106Z,10.30
